createdAt,value
2017-08-01T00:01:58.310Z,15.13
2017-08-01T00:04:25.707Z,14.67
2017-08-01T00:06:53.111Z,15.37
2017-08-01T00:09:20.510Z,15.33
2017-08-01T00:11:47.950Z,15.37
2017-08-01T00:14:15.345Z,15.03
2017-08-01T00:16:42.732Z,15.53
2017-08-01T00:19:10.144Z,17.27
2017-08-01T00:21:37.534Z,15.60
2017-08-01T00:24:04.942Z,15.10
2017-08-01T00:26:32.347Z,16.10
2017-08-01T00:28:59.758Z,14.50
2017-08-01T00:31:27.158Z,16.27
2017-08-01T00:33:54.556Z,15.73
2017-08-01T00:36:22.105Z,15.63
2017-08-01T00:38:49.542Z,15.80
2017-08-01T00:41:16.940Z,15.97
2017-08-01T00:43:44.342Z,16.00
2017-08-01T00:46:11.739Z,16.00
2017-08-01T00:48:39.294Z,15.93
2017-08-01T00:51:06.698Z,15.50
2017-08-01T00:53:34.094Z,16.17
2017-08-01T00:56:01.538Z,16.73
2017-08-01T00:58:28.934Z,15.97
2017-08-01T01:00:56.341Z,17.10
2017-08-01T01:03:23.742Z,16.70
2017-08-01T01:05:51.134Z,16.20
2017-08-01T01:08:18.531Z,15.97
2017-08-01T01:10:45.934Z,15.50
2017-08-01T01:13:13.330Z,15.87
2017-08-01T01:15:40.729Z,16.90
2017-08-01T01:18:08.138Z,17.20
2017-08-01T01:20:35.535Z,15.53
2017-08-01T01:23:02.937Z,16.47
2017-08-01T01:25:30.335Z,16.47
2017-08-01T01:27:57.734Z,17.07
2017-08-01T01:30:25.135Z,18.00
2017-08-01T01:32:52.531Z,16.67
2017-08-01T01:35:20.310Z,16.23
2017-08-01T01:37:47.698Z,15.93
2017-08-01T01:40:15.095Z,15.97
2017-08-01T01:42:42.494Z,16.17
2017-08-01T01:45:09.891Z,16.30
2017-08-01T01:47:37.463Z,16.30
2017-08-01T01:50:04.854Z,16.87
2017-08-01T01:52:32.246Z,15.30
2017-08-01T01:54:59.654Z,16.20
2017-08-01T01:57:27.047Z,16.27
2017-08-01T01:59:54.782Z,17.60
2017-08-01T02:02:22.187Z,17.33
2017-08-01T02:04:49.587Z,16.23
2017-08-01T02:07:16.991Z,16.30
2017-08-01T02:09:44.387Z,17.93
2017-08-01T02:12:11.934Z,16.87
2017-08-01T02:14:39.330Z,16.63
2017-08-01T02:17:06.726Z,16.50
2017-08-01T02:19:34.134Z,17.70
2017-08-01T02:22:01.532Z,16.30
2017-08-01T02:24:28.955Z,16.73
2017-08-01T02:26:56.346Z,16.77
2017-08-01T02:29:23.750Z,16.37
2017-08-01T02:31:51.154Z,17.00
2017-08-01T02:34:18.549Z,16.90
2017-08-01T02:36:45.970Z,14.97
2017-08-01T02:39:13.362Z,15.03
2017-08-01T02:41:40.759Z,15.57
2017-08-01T02:44:08.166Z,16.87
2017-08-01T02:46:35.557Z,15.70
2017-08-01T02:49:03.275Z,15.27
2017-08-01T02:51:32.644Z,15.80
2017-08-01T02:54:00.038Z,15.50
2017-08-01T02:56:27.439Z,16.60
2017-08-01T02:58:54.835Z,17.07
2017-08-01T03:01:22.249Z,16.73
2017-08-01T03:03:49.634Z,15.40
2017-08-01T03:06:17.029Z,15.57
2017-08-01T03:08:44.430Z,16.90
2017-08-01T03:11:11.818Z,15.63
2017-08-01T03:13:39.371Z,14.80
2017-08-01T03:16:06.767Z,16.37
2017-08-01T03:18:34.171Z,16.27
2017-08-01T03:21:01.571Z,16.50
2017-08-01T03:23:28.962Z,15.97
2017-08-01T03:25:56.510Z,16.20
2017-08-01T03:28:23.914Z,15.80
2017-08-01T03:30:51.315Z,15.23
2017-08-01T03:33:18.718Z,16.10
2017-08-01T03:35:46.119Z,16.53
2017-08-01T03:38:13.666Z,16.23
2017-08-01T03:40:41.058Z,16.50
2017-08-01T03:43:08.460Z,16.07
2017-08-01T03:45:35.859Z,15.17
2017-08-01T03:48:03.254Z,16.30
2017-08-01T03:50:30.659Z,15.03
2017-08-01T03:52:58.055Z,15.70
2017-08-01T03:55:25.451Z,16.40
2017-08-01T03:57:52.853Z,17.33
2017-08-01T04:00:20.250Z,16.40
2017-08-01T04:02:48.018Z,15.70
2017-08-01T04:05:15.416Z,16.50
2017-08-01T04:07:42.809Z,16.00
2017-08-01T04:10:10.205Z,17.50
2017-08-01T04:12:37.602Z,17.37
2017-08-01T04:15:05.010Z,16.10
2017-08-01T04:17:32.407Z,15.30
2017-08-01T04:19:59.806Z,14.93
2017-08-01T04:22:27.218Z,14.47
2017-08-01T04:24:54.635Z,16.20
2017-08-01T04:27:22.183Z,16.30
2017-08-01T04:29:49.579Z,15.90
2017-08-01T04:32:16.974Z,16.47
2017-08-01T04:34:44.375Z,17.57
2017-08-01T04:37:11.776Z,15.73
2017-08-01T04:39:39.439Z,15.97
2017-08-01T04:42:06.855Z,15.80
2017-08-01T04:44:46.057Z,15.03
2017-08-01T04:47:13.449Z,14.40
2017-08-01T04:49:40.851Z,15.67
2017-08-01T04:52:08.255Z,16.20
2017-08-01T04:54:35.655Z,14.53
2017-08-01T04:57:03.350Z,14.63
2017-08-01T04:59:30.752Z,16.33
2017-08-01T05:01:58.146Z,16.13
2017-08-01T05:04:26.214Z,14.73
2017-08-01T05:06:53.620Z,15.53
2017-08-01T05:09:21.174Z,15.20
2017-08-01T05:11:48.585Z,15.40
2017-08-01T05:14:15.999Z,13.83
2017-08-01T05:16:43.402Z,13.80
2017-08-01T05:19:10.811Z,15.63
2017-08-01T05:21:38.375Z,14.63
2017-08-01T05:24:05.824Z,16.70
2017-08-01T05:26:33.203Z,15.77
2017-08-01T05:29:00.638Z,17.93
2017-08-01T05:31:28.070Z,16.97
2017-08-01T05:33:55.670Z,17.33
2017-08-01T05:36:23.118Z,18.00
2017-08-01T05:38:50.562Z,15.83
2017-08-01T05:41:18.032Z,17.60
2017-08-01T05:43:45.437Z,15.13
2017-08-01T05:46:13.017Z,16.13
2017-08-01T05:48:40.424Z,18.13
2017-08-01T05:51:07.818Z,17.00
2017-08-01T05:53:36.092Z,16.30
2017-08-01T05:56:03.514Z,16.20
2017-08-01T05:58:31.102Z,16.00
2017-08-01T06:00:58.511Z,15.73
2017-08-01T06:03:44.796Z,16.20
2017-08-01T06:06:20.646Z,16.97
2017-08-01T06:08:48.383Z,15.70
2017-08-01T06:11:16.657Z,17.23
2017-08-01T06:13:44.194Z,16.43
2017-08-01T06:16:12.923Z,16.60
2017-08-01T06:18:40.665Z,16.17
2017-08-01T06:21:08.681Z,16.83
2017-08-01T06:23:36.839Z,15.43
2017-08-01T06:26:04.325Z,16.77
2017-08-01T06:28:31.802Z,16.53
2017-08-01T06:30:59.602Z,15.93
2017-08-01T06:33:27.067Z,16.37
2017-08-01T06:35:55.236Z,15.60
2017-08-01T06:38:23.378Z,16.33
2017-08-01T06:40:50.834Z,17.13
2017-08-01T06:43:18.933Z,18.00
2017-08-01T06:45:46.376Z,18.20
2017-08-01T06:48:14.582Z,19.10
2017-08-01T06:50:41.983Z,17.60
2017-08-01T06:53:09.412Z,17.73
2017-08-01T06:55:37.054Z,18.47
2017-08-01T06:58:04.575Z,18.83
2017-08-01T07:00:32.028Z,17.90
2017-08-01T07:03:01.465Z,19.77
2017-08-01T07:05:28.903Z,19.80
2017-08-01T07:07:56.359Z,19.73
2017-08-01T07:10:23.816Z,19.20
2017-08-01T07:12:51.262Z,20.17
2017-08-01T07:15:18.673Z,19.17
2017-08-01T07:17:46.071Z,21.80
2017-08-01T07:20:13.522Z,22.20
2017-08-01T07:22:41.152Z,21.50
2017-08-01T07:25:08.582Z,21.13
2017-08-01T07:27:37.688Z,21.83
2017-08-01T07:30:05.105Z,22.70
2017-08-01T07:32:32.546Z,21.70
2017-08-01T07:35:00.013Z,21.60
2017-08-01T07:37:27.450Z,20.53
2017-08-01T07:39:54.832Z,23.90
2017-08-01T07:42:22.273Z,23.83
2017-08-01T07:44:49.719Z,23.40
2017-08-01T07:47:17.142Z,21.57
2017-08-01T07:49:44.827Z,24.20
2017-08-01T07:52:12.243Z,24.40
2017-08-01T07:54:39.680Z,23.97
2017-08-01T07:57:07.132Z,24.23
2017-08-01T07:59:34.586Z,24.30
2017-08-01T08:02:01.997Z,24.27
2017-08-01T08:04:29.519Z,25.27
2017-08-01T08:06:58.703Z,23.77
2017-08-01T08:09:26.247Z,22.47
2017-08-01T08:11:53.802Z,21.87
2017-08-01T08:14:21.807Z,21.70
2017-08-01T08:16:49.202Z,19.37
2017-08-01T08:19:17.192Z,18.17
2017-08-01T08:21:44.616Z,19.33
2017-08-01T08:24:12.026Z,16.90
2017-08-01T08:26:39.811Z,16.87
2017-08-01T08:29:07.215Z,16.70
2017-08-01T08:31:34.647Z,16.40
2017-08-01T08:34:02.136Z,16.50
2017-08-01T08:36:29.731Z,15.83
2017-08-01T08:38:58.450Z,16.20
2017-08-01T08:41:26.550Z,15.13
2017-08-01T08:43:54.512Z,16.40
2017-08-01T08:46:22.222Z,13.60
2017-08-01T08:48:49.763Z,15.03
2017-08-01T08:51:17.239Z,14.90
2017-08-01T08:53:44.646Z,15.80
2017-08-01T08:56:12.107Z,16.43
2017-08-01T08:58:41.330Z,15.20
2017-08-01T09:01:08.724Z,16.20
2017-08-01T09:03:36.123Z,14.30
2017-08-01T09:06:03.685Z,14.13
2017-08-01T09:08:31.097Z,13.37
2017-08-01T09:10:58.498Z,14.13
2017-08-01T09:13:25.894Z,14.70
2017-08-01T09:15:53.294Z,15.10
2017-08-01T09:18:20.850Z,15.10
2017-08-01T09:20:48.258Z,15.27
2017-08-01T09:23:15.669Z,15.70
2017-08-01T09:25:43.074Z,16.30
2017-08-01T09:28:10.478Z,16.43
2017-08-01T09:30:37.906Z,15.80
2017-08-01T09:33:05.362Z,13.73
2017-08-01T09:35:32.794Z,14.90
2017-08-01T09:38:00.209Z,14.10
2017-08-01T09:40:27.615Z,13.87
2017-08-01T09:42:55.203Z,15.00
2017-08-01T09:45:22.586Z,13.83
2017-08-01T09:47:49.995Z,12.73
2017-08-01T09:50:17.397Z,13.87
2017-08-01T09:52:44.816Z,15.00
2017-08-01T09:55:12.414Z,13.70
2017-08-01T09:57:39.814Z,12.80
2017-08-01T10:00:07.219Z,13.77
2017-08-01T10:02:34.626Z,12.27
2017-08-01T10:05:02.237Z,12.23
2017-08-01T10:07:29.796Z,12.93
2017-08-01T10:09:57.190Z,11.97
2017-08-01T10:12:24.585Z,12.13
2017-08-01T10:14:51.986Z,12.00
2017-08-01T10:17:19.393Z,10.63
2017-08-01T10:19:46.813Z,10.87
2017-08-01T10:22:14.295Z,11.50
2017-08-01T10:24:41.698Z,12.50
2017-08-01T10:27:09.106Z,11.23
2017-08-01T10:29:36.515Z,13.23
2017-08-01T10:32:03.923Z,12.13
2017-08-01T10:34:31.345Z,12.80
2017-08-01T10:36:59.033Z,13.70
2017-08-01T10:39:26.409Z,13.23
2017-08-01T10:41:53.801Z,13.00
2017-08-01T10:44:21.207Z,14.20
2017-08-01T10:46:48.662Z,13.57
2017-08-01T10:49:28.562Z,13.60
2017-08-01T10:51:55.950Z,12.50
2017-08-01T10:54:23.350Z,11.97
2017-08-01T10:56:50.762Z,12.63
2017-08-01T10:59:18.166Z,12.03
2017-08-01T11:01:45.613Z,11.27
2017-08-01T11:04:12.995Z,10.73
2017-08-01T11:06:40.402Z,11.43
2017-08-01T11:09:07.806Z,10.30
2017-08-01T11:11:35.434Z,11.00
2017-08-01T11:14:03.238Z,10.80
2017-08-01T11:16:31.254Z,10.70
2017-08-01T11:18:58.650Z,10.20
2017-08-01T11:21:26.058Z,10.70
2017-08-01T11:23:53.667Z,11.23
2017-08-01T11:26:21.557Z,11.00
2017-08-01T11:28:48.937Z,11.90
2017-08-01T11:31:16.334Z,10.67
2017-08-01T11:33:43.734Z,11.53
2017-08-01T11:36:11.130Z,11.00
2017-08-01T11:38:38.534Z,11.43
2017-08-01T11:41:05.935Z,11.60
2017-08-01T11:43:33.783Z,11.90
2017-08-01T11:46:01.174Z,12.83
2017-08-01T11:48:28.640Z,11.30
2017-08-01T11:50:56.037Z,11.90
2017-08-01T11:53:23.438Z,11.17
2017-08-01T11:55:50.986Z,11.90
2017-08-01T11:58:18.394Z,12.50
2017-08-01T12:00:45.783Z,12.70
2017-08-01T12:03:13.187Z,12.20
2017-08-01T12:05:40.583Z,10.23
2017-08-01T12:08:08.086Z,12.27
2017-08-01T12:10:36.333Z,12.30
2017-08-01T12:13:03.734Z,12.30
2017-08-01T12:15:31.134Z,11.77
2017-08-01T12:17:58.526Z,13.20
2017-08-01T12:20:26.031Z,13.80
2017-08-01T12:22:53.429Z,13.40
2017-08-01T12:25:20.819Z,13.67
2017-08-01T12:27:48.214Z,14.50
2017-08-01T12:30:15.610Z,13.73
2017-08-01T12:32:43.396Z,11.77
2017-08-01T12:35:10.799Z,13.03
2017-08-01T12:37:38.201Z,12.67
2017-08-01T12:40:05.608Z,13.90
2017-08-01T12:42:33.015Z,13.60
2017-08-01T12:45:00.564Z,13.77
2017-08-01T12:47:27.971Z,14.27
2017-08-01T12:49:55.367Z,15.37
2017-08-01T12:52:22.778Z,12.87
2017-08-01T12:54:50.180Z,14.43
2017-08-01T12:57:17.740Z,14.47
2017-08-01T12:59:45.186Z,15.80
2017-08-01T13:02:12.587Z,15.27
2017-08-01T13:04:39.996Z,17.13
2017-08-01T13:07:07.399Z,17.17
2017-08-01T13:09:34.956Z,16.87
2017-08-01T13:12:02.352Z,13.87
2017-08-01T13:14:29.759Z,16.80
2017-08-01T13:16:57.164Z,16.77
2017-08-01T13:19:24.567Z,16.23
2017-08-01T13:21:51.991Z,19.97
2017-08-01T13:24:19.399Z,15.70
2017-08-01T13:26:46.799Z,16.60
2017-08-01T13:29:14.209Z,17.60
2017-08-01T13:31:41.607Z,19.50
2017-08-01T13:34:09.051Z,19.50
2017-08-01T13:36:36.455Z,18.47
2017-08-01T13:39:03.858Z,20.23
2017-08-01T13:41:31.263Z,18.67
2017-08-01T13:43:58.671Z,20.80
2017-08-01T13:46:26.120Z,18.63
2017-08-01T13:48:53.515Z,21.27
2017-08-01T13:51:20.943Z,20.50
2017-08-01T13:53:51.867Z,19.23
2017-08-01T13:56:19.263Z,19.63
2017-08-01T13:58:46.820Z,18.40
2017-08-01T14:01:14.239Z,22.27
2017-08-01T14:03:41.662Z,21.07
2017-08-01T14:06:09.066Z,20.80
2017-08-01T14:08:36.463Z,21.33
2017-08-01T14:11:03.975Z,24.13
2017-08-01T14:13:31.424Z,20.33
2017-08-01T14:15:58.842Z,23.40
2017-08-01T14:18:26.263Z,21.70
2017-08-01T14:20:53.687Z,24.43
2017-08-01T14:23:21.098Z,25.53
2017-08-01T14:25:48.519Z,22.87
2017-08-01T14:28:15.940Z,25.80
2017-08-01T14:30:43.423Z,26.90
2017-08-01T14:33:10.875Z,26.90
2017-08-01T14:35:38.544Z,28.77
2017-08-01T14:38:05.944Z,27.73
2017-08-01T14:40:33.351Z,21.50
2017-08-01T14:43:00.759Z,29.20
2017-08-01T14:45:28.160Z,25.80
2017-08-01T14:47:55.600Z,24.33
2017-08-01T14:50:23.000Z,26.20
2017-08-01T14:52:50.408Z,25.10
2017-08-01T14:55:17.811Z,21.50
2017-08-01T14:57:45.211Z,23.70
2017-08-01T15:00:13.095Z,25.37
2017-08-01T15:02:40.491Z,26.23
2017-08-01T15:05:07.891Z,23.93
2017-08-01T15:07:35.299Z,21.90
2017-08-01T15:10:02.704Z,20.60
2017-08-01T15:12:30.131Z,21.37
2017-08-01T15:14:57.526Z,22.77
2017-08-01T15:17:24.948Z,23.10
2017-08-01T15:19:52.354Z,22.23
2017-08-01T15:22:19.762Z,22.63
2017-08-01T15:24:55.045Z,25.73
2017-08-01T15:27:22.465Z,23.20
2017-08-01T15:29:49.891Z,19.90
2017-08-01T15:32:17.303Z,22.17
2017-08-01T15:34:44.716Z,21.73
2017-08-01T15:37:12.139Z,22.90
2017-08-01T15:39:39.547Z,23.70
2017-08-01T15:42:06.983Z,20.80
2017-08-01T15:44:34.491Z,22.80
2017-08-01T15:47:01.899Z,26.03
2017-08-01T15:49:29.404Z,24.50
2017-08-01T15:51:56.806Z,26.43
2017-08-01T15:54:24.207Z,25.30
2017-08-01T15:56:51.610Z,23.70
2017-08-01T15:59:19.016Z,23.33
2017-08-01T16:01:46.419Z,24.47
2017-08-01T16:04:13.820Z,22.53
2017-08-01T16:06:41.606Z,25.50
2017-08-01T16:09:09.009Z,24.37
2017-08-01T16:11:36.414Z,23.97
2017-08-01T16:14:03.823Z,22.20
2017-08-01T16:16:31.226Z,23.37
2017-08-01T16:18:58.952Z,21.90
2017-08-01T16:21:26.348Z,22.57
2017-08-01T16:23:53.748Z,21.97
2017-08-01T16:26:21.146Z,19.63
2017-08-01T16:28:48.551Z,21.23
2017-08-01T16:31:16.063Z,21.27
2017-08-01T16:33:43.459Z,21.13
2017-08-01T16:36:11.048Z,22.93
2017-08-01T16:38:38.469Z,22.93
2017-08-01T16:41:05.860Z,22.27
2017-08-01T16:43:33.670Z,23.33
2017-08-01T16:46:01.087Z,21.80
2017-08-01T16:48:28.538Z,23.93
2017-08-01T16:50:55.943Z,23.13
2017-08-01T16:53:23.400Z,20.57
2017-08-01T16:55:50.843Z,21.10
2017-08-01T16:58:18.239Z,17.57
2017-08-01T17:00:45.639Z,15.80
2017-08-01T17:03:13.043Z,17.03
2017-08-01T17:05:40.457Z,18.17
2017-08-01T17:08:07.999Z,17.63
2017-08-01T17:10:36.308Z,18.13
2017-08-01T17:13:03.702Z,17.03
2017-08-01T17:15:31.107Z,18.27
2017-08-01T17:17:58.505Z,16.87
2017-08-01T17:20:26.898Z,18.87
2017-08-01T17:22:54.298Z,15.80
2017-08-01T17:25:21.702Z,16.03
2017-08-01T17:27:49.118Z,16.63
2017-08-01T17:30:16.521Z,17.40
2017-08-01T17:32:43.926Z,16.30
2017-08-01T17:35:11.330Z,15.83
2017-08-01T17:37:38.722Z,17.47
2017-08-01T17:40:06.118Z,14.60
2017-08-01T17:42:33.518Z,16.70
2017-08-01T17:45:00.975Z,16.20
2017-08-01T17:47:28.371Z,15.30
2017-08-01T17:49:55.771Z,14.33
2017-08-01T17:52:23.171Z,16.50
2017-08-01T17:54:50.569Z,15.47
2017-08-01T17:57:17.998Z,15.10
2017-08-01T17:59:45.390Z,15.50
2017-08-01T18:02:12.786Z,16.03
2017-08-01T18:04:40.194Z,14.47
2017-08-01T18:07:07.593Z,13.53
2017-08-01T18:09:35.039Z,13.33
2017-08-01T18:12:02.448Z,15.20
2017-08-01T18:14:29.835Z,15.07
2017-08-01T18:16:58.160Z,16.30
2017-08-01T18:19:25.563Z,14.10
2017-08-01T18:21:53.014Z,15.23
2017-08-01T18:24:20.414Z,15.90
2017-08-01T18:26:47.817Z,14.97
2017-08-01T18:29:15.326Z,15.67
2017-08-01T18:31:42.726Z,14.50
2017-08-01T18:34:10.131Z,13.93
2017-08-01T18:36:37.535Z,16.60
2017-08-01T18:39:04.935Z,14.00
2017-08-01T18:41:32.340Z,13.23
2017-08-01T18:43:59.765Z,14.67
2017-08-01T18:46:27.163Z,16.77
2017-08-01T18:48:54.571Z,17.73
2017-08-01T18:51:22.017Z,18.40
2017-08-01T18:53:49.420Z,17.80
2017-08-01T18:56:16.843Z,15.40
2017-08-01T18:58:44.242Z,17.60
2017-08-01T19:01:11.695Z,18.33
2017-08-01T19:03:39.101Z,16.77
2017-08-01T19:06:06.508Z,17.30
2017-08-01T19:08:33.907Z,17.87
2017-08-01T19:11:01.410Z,19.77
2017-08-01T19:13:28.926Z,20.07
2017-08-01T19:15:56.326Z,17.63
2017-08-01T19:18:23.722Z,19.83
2017-08-01T19:20:51.222Z,18.93
2017-08-01T19:23:18.622Z,18.30
2017-08-01T19:25:46.054Z,18.53
2017-08-01T19:28:13.454Z,16.90
2017-08-01T19:30:40.855Z,19.33
2017-08-01T19:33:08.254Z,18.27
2017-08-01T19:35:35.645Z,17.67
2017-08-01T19:38:03.042Z,17.70
2017-08-01T19:40:30.447Z,18.83
2017-08-01T19:42:57.881Z,16.03
2017-08-01T19:45:25.515Z,16.27
2017-08-01T19:47:53.690Z,16.87
2017-08-01T19:50:21.090Z,17.53
2017-08-01T19:52:48.492Z,17.17
2017-08-01T19:55:15.898Z,16.20
2017-08-01T19:57:43.295Z,17.50
2017-08-01T20:00:10.687Z,17.60
2017-08-01T20:02:38.087Z,17.83
2017-08-01T20:05:05.487Z,17.90
2017-08-01T20:07:32.924Z,17.67
2017-08-01T20:10:00.327Z,17.23
2017-08-01T20:12:27.722Z,19.10
2017-08-01T20:14:55.124Z,17.53
2017-08-01T20:17:22.522Z,17.70
2017-08-01T20:19:49.927Z,17.67
2017-08-01T20:22:17.318Z,18.43
2017-08-01T20:24:44.748Z,17.20
2017-08-01T20:27:12.179Z,19.20
2017-08-01T20:29:39.624Z,18.33
2017-08-01T20:32:07.026Z,18.80
2017-08-01T20:34:34.422Z,18.53
2017-08-01T20:37:01.827Z,18.03
2017-08-01T20:39:29.226Z,18.20
2017-08-01T20:41:56.635Z,18.80
2017-08-01T20:44:24.044Z,20.23
2017-08-01T20:46:51.459Z,19.00
2017-08-01T20:49:19.229Z,18.47
2017-08-01T20:51:46.659Z,19.23
2017-08-01T20:54:14.068Z,19.50
2017-08-01T20:56:41.500Z,18.67
2017-08-01T20:59:08.924Z,17.90
2017-08-01T21:01:36.507Z,18.43
2017-08-01T21:04:03.895Z,17.10
2017-08-01T21:06:31.332Z,17.30
2017-08-01T21:08:58.743Z,18.17
2017-08-01T21:11:26.162Z,18.80
2017-08-01T21:13:53.710Z,19.80
2017-08-01T21:16:21.093Z,17.87
2017-08-01T21:18:48.494Z,17.90
2017-08-01T21:21:15.906Z,18.30
2017-08-01T21:23:43.319Z,18.40
2017-08-01T21:26:10.874Z,18.77
2017-08-01T21:28:38.277Z,18.73
2017-08-01T21:31:05.679Z,18.00
2017-08-01T21:33:33.083Z,16.80
2017-08-01T21:36:00.507Z,20.03
2017-08-01T21:38:27.958Z,18.70
2017-08-01T21:40:55.363Z,20.30
2017-08-01T21:43:22.765Z,19.10
2017-08-01T21:45:50.174Z,18.47
2017-08-01T21:48:17.566Z,18.87
2017-08-01T21:50:45.130Z,18.17
2017-08-01T21:53:12.549Z,17.10
2017-08-01T21:55:39.994Z,17.60
2017-08-01T21:58:07.410Z,19.10
2017-08-01T22:00:34.823Z,19.20
2017-08-01T22:03:02.379Z,18.00
2017-08-01T22:05:29.782Z,17.80
2017-08-01T22:07:57.178Z,18.30
2017-08-01T22:10:24.587Z,18.00
2017-08-01T22:12:52.001Z,17.93
2017-08-01T22:15:19.623Z,19.53
2017-08-01T22:17:47.022Z,18.30
2017-08-01T22:20:14.435Z,20.83
2017-08-01T22:22:41.854Z,19.93
2017-08-01T22:25:09.255Z,20.00
2017-08-01T22:27:36.651Z,19.20
2017-08-01T22:30:04.079Z,19.77
2017-08-01T22:32:31.489Z,19.67
2017-08-01T22:34:58.902Z,18.83
2017-08-01T22:37:26.307Z,19.53
2017-08-01T22:39:53.711Z,19.50
2017-08-01T22:42:21.111Z,20.20
2017-08-01T22:44:48.522Z,20.27
2017-08-01T22:47:15.914Z,20.53
2017-08-01T22:49:43.323Z,20.23
2017-08-01T22:52:10.731Z,19.87
2017-08-01T22:54:38.135Z,20.20
2017-08-01T22:57:05.531Z,19.70
2017-08-01T22:59:32.958Z,19.43
2017-08-01T23:02:00.391Z,19.63
2017-08-01T23:04:27.801Z,21.00
2017-08-01T23:06:55.202Z,22.40
2017-08-01T23:09:22.599Z,25.00
2017-08-01T23:11:49.998Z,23.37
2017-08-01T23:14:17.580Z,22.73
2017-08-01T23:16:44.963Z,24.20
2017-08-01T23:19:12.370Z,25.00
2017-08-01T23:21:39.791Z,25.47
2017-08-01T23:24:07.197Z,26.17
2017-08-01T23:26:34.754Z,25.40
2017-08-01T23:29:02.162Z,24.37
2017-08-01T23:31:29.609Z,22.80
2017-08-01T23:33:57.022Z,23.50
2017-08-01T23:36:24.427Z,23.77
2017-08-01T23:38:52.007Z,23.50
2017-08-01T23:41:19.422Z,24.10
2017-08-01T23:43:46.832Z,24.60
2017-08-01T23:46:14.255Z,23.80
2017-08-01T23:48:41.651Z,24.23
2017-08-01T23:51:09.075Z,24.10
2017-08-01T23:53:36.471Z,24.03
2017-08-01T23:56:03.882Z,28.83
2017-08-01T23:58:31.296Z,30.30
